Time;durP1;ratioP1;P1;durP2;ratioP2;P2;SDS_P1;SDS_P2;PMS_P1;PMS_P2;Temp;Humidity;BMP_temperature;BMP_pressure;BME280_temperature;BME280_humidity;BME280_pressure;Samples;Min_cycle;Max_cycle;Signal;HPM_P1;HPM_P2
2021/12/26 00:00:35;;;;;;;3.35;2.22;;;;;;;1.69;73.35;99033.00;4208475;34;32874;-88
2021/12/26 00:03:04;;;;;;;;;;;;;;;1.62;74.28;99031.22;4200990;34;34461;-89
2021/12/26 00:05:33;;;;;;;3.05;2.28;;;;;;;1.66;74.02;99035.50;4200690;34;34310;-88
2021/12/26 00:08:02;;;;;;;2.55;2.35;;;;;;;1.82;73.20;99031.44;4200190;34;34033;-88
2021/12/26 00:10:31;;;;;;;3.12;2.25;;;;;;;2.03;72.91;99030.84;4190747;34;33007;-88
2021/12/26 00:13:01;;;;;;;2.85;2.03;;;;;;;1.74;73.99;99024.53;4193019;34;34454;-90
2021/12/26 00:15:30;;;;;;;3.30;2.35;;;;;;;1.53;74.60;99026.00;4197164;34;34181;-90
2021/12/26 00:17:59;;;;;;;2.97;2.40;;;;;;;1.69;73.68;99021.91;4200105;34;34637;-90
2021/12/26 00:20:28;;;;;;;2.65;2.28;;;;;;;0.61;76.33;99023.00;4201900;34;31748;-90
2021/12/26 00:22:57;;;;;;;4.80;2.65;;;;;;;1.46;74.14;99029.31;4198991;34;33842;-88
2021/12/26 00:25:26;;;;;;;3.30;2.30;;;;;;;1.70;73.81;99028.75;4206436;34;34793;-88
2021/12/26 00:27:55;;;;;;;6.55;3.28;;;;;;;1.70;73.04;99031.31;4200856;34;33798;-89
2021/12/26 00:30:26;;;;;;;2.53;2.17;;;;;;;1.92;72.60;99037.53;4199400;34;33218;-88
2021/12/26 00:32:55;;;;;;;3.12;2.65;;;;;;;1.93;72.69;99041.78;4187938;34;33634;-87
2021/12/26 00:35:25;;;;;;;2.75;2.20;;;;;;;1.44;73.96;99033.53;4195475;34;35090;-87
2021/12/26 00:37:56;;;;;;;2.67;2.35;;;;;;;1.56;73.86;99028.59;4202911;34;34403;-89
2021/12/26 00:40:27;;;;;;;2.55;2.35;;;;;;;1.27;75.13;99039.28;4204428;34;34176;-89
2021/12/26 00:42:56;;;;;;;;;;;;;;;1.67;73.09;99042.38;4200639;34;34376;-88
2021/12/26 00:45:27;;;;;;;2.65;2.45;;;;;;;1.76;73.18;99036.47;4199653;34;35033;-91
2021/12/26 00:47:56;;;;;;;2.70;2.33;;;;;;;1.64;73.75;99047.44;4199049;34;34275;-89
2021/12/26 00:50:26;;;;;;;2.28;2.00;;;;;;;1.61;74.21;99039.72;4205138;34;33286;-88
2021/12/26 00:52:55;;;;;;;3.35;2.83;;;;;;;1.36;74.70;99032.59;4211734;34;34635;-87
2021/12/26 00:55:24;;;;;;;3.83;2.72;;;;;;;1.27;75.07;99031.63;4201735;34;33675;-87
2021/12/26 00:57:53;;;;;;;2.55;2.30;;;;;;;0.52;77.72;99050.06;4199298;34;33783;-87
2021/12/26 01:00:25;;;;;;;2.62;2.42;;;;;;;0.56;78.02;99039.09;4194535;34;33234;-89
2021/12/26 01:03:02;;;;;;;2.70;2.50;;;;;;;0.31;79.51;99048.84;4196598;34;35391;-89
2021/12/26 01:05:32;;;;;;;2.80;2.50;;;;;;;-0.47;82.01;99045.69;4204635;34;33110;-87
2021/12/26 01:08:03;;;;;;;4.10;2.90;;;;;;;0.15;80.51;99047.75;4201964;34;32896;-88
2021/12/26 01:10:34;;;;;;;;;;;;;;;0.38;79.71;99050.69;4193898;34;32680;-89
2021/12/26 01:13:14;;;;;;;2.87;2.42;;;;;;;0.12;80.11;99046.81;4200985;34;33807;-89
2021/12/26 01:15:45;;;;;;;2.90;2.47;;;;;;;0.44;78.88;99054.19;4200077;34;33945;-87
2021/12/26 01:18:19;;;;;;;2.50;2.30;;;;;;;0.88;76.90;99051.50;4201618;34;33859;-88
2021/12/26 01:20:54;;;;;;;2.90;2.42;;;;;;;0.97;76.70;99046.53;4205052;34;33129;-87
2021/12/26 01:23:25;;;;;;;3.53;2.62;;;;;;;0.51;78.58;99056.00;4203145;34;34547;-89
2021/12/26 01:25:55;;;;;;;3.15;2.85;;;;;;;1.33;75.63;99045.31;4209229;34;33919;-90
2021/12/26 01:28:28;;;;;;;2.30;2.10;;;;;;;0.74;76.72;99057.22;4201451;34;33763;-90
2021/12/26 01:30:58;;;;;;;3.75;2.47;;;;;;;0.64;77.64;99063.87;4201618;34;32799;-88
2021/12/26 01:33:28;;;;;;;2.50;2.30;;;;;;;0.14;78.53;99065.56;4206103;34;35389;-89
2021/12/26 01:35:59;;;;;;;2.70;2.50;;;;;;;0.08;79.69;99066.31;4203670;34;35780;-88
2021/12/26 01:38:28;;;;;;;2.22;2.00;;;;;;;0.70;77.33;99062.25;4201079;34;33474;-88
2021/12/26 01:41:08;;;;;;;3.03;2.60;;;;;;;0.28;78.37;99063.25;4211035;34;33072;-88
2021/12/26 01:43:39;;;;;;;3.05;2.75;;;;;;;0.49;77.70;99067.88;4201410;34;34121;-87
2021/12/26 01:46:08;;;;;;;;;;;;;;;0.29;77.79;99059.88;4203353;34;33788;-89
2021/12/26 01:48:39;;;;;;;3.05;2.67;;;;;;;0.49;77.19;99068.75;4218878;34;34051;-89
2021/12/26 01:51:08;;;;;;;4.93;2.25;;;;;;;0.09;78.34;99062.06;4214705;34;33938;-87
2021/12/26 01:53:39;;;;;;;2.60;2.40;;;;;;;0.46;77.22;99057.59;4215298;34;33578;-88
2021/12/26 01:56:10;;;;;;;2.62;2.25;;;;;;;0.12;79.01;99057.00;4214805;34;33919;-89
2021/12/26 01:58:41;;;;;;;3.05;2.45;;;;;;;0.49;77.29;99062.78;4211118;33;34243;-87
2021/12/26 02:01:11;;;;;;;;;;;;;;;0.77;76.97;99059.81;4202564;34;33017;-88
2021/12/26 02:03:43;;;;;;;2.58;2.37;;;;;;;0.56;76.81;99060.34;4206252;34;34549;-87
2021/12/26 02:06:11;;;;;;;3.55;2.28;;;;;;;0.04;79.45;99054.31;4201605;34;33826;-87
2021/12/26 02:08:41;;;;;;;2.83;2.22;;;;;;;0.70;77.08;99057.16;4199619;34;34343;-88
2021/12/26 02:11:10;;;;;;;2.55;2.25;;;;;;;0.41;77.54;99047.31;4201017;34;33151;-90
2021/12/26 02:13:39;;;;;;;4.90;2.53;;;;;;;0.69;76.98;99051.19;4201341;34;33558;-88
2021/12/26 02:16:13;;;;;;;4.35;2.53;;;;;;;0.77;76.53;99047.06;4205106;34;33337;-88
2021/12/26 02:18:43;;;;;;;3.78;2.80;;;;;;;0.71;76.61;99044.44;4200078;34;34384;-88
2021/12/26 02:21:25;;;;;;;4.03;2.73;;;;;;;0.62;76.98;99046.81;4201012;34;32802;-89
2021/12/26 02:24:07;;;;;;;5.30;2.70;;;;;;;0.94;76.58;99046.47;4201414;34;34319;-89
2021/12/26 02:29:22;;;;;;;3.80;2.87;;;;;;;0.95;76.03;99053.31;4200961;34;32029;-87
2021/12/26 02:31:52;;;;;;;3.00;2.40;;;;;;;0.95;76.41;99053.31;4201688;34;33107;-89
2021/12/26 02:34:22;;;;;;;3.83;2.55;;;;;;;1.13;75.97;99066.34;4206129;34;33488;-88
2021/12/26 02:36:52;;;;;;;4.03;2.47;;;;;;;0.96;75.47;99060.97;4201029;34;34118;-89
2021/12/26 02:39:21;;;;;;;2.58;2.30;;;;;;;0.38;77.94;99050.69;4201181;34;33627;-89
2021/12/26 02:41:51;;;;;;;4.35;2.97;;;;;;;0.38;77.54;99053.22;4200914;34;34021;-89
2021/12/26 02:44:22;;;;;;;4.65;2.28;;;;;;;0.47;76.63;99056.78;4200684;34;33787;-88
2021/12/26 02:46:51;;;;;;;2.65;2.42;;;;;;;0.35;76.13;99055.72;4205311;34;33759;-89
2021/12/26 02:49:23;;;;;;;4.15;2.65;;;;;;;0.06;77.05;99056.91;4200703;34;33695;-87
2021/12/26 02:51:54;;;;;;;4.30;3.10;;;;;;;0.57;75.88;99058.66;4201220;34;33317;-88
2021/12/26 02:54:24;;;;;;;2.72;2.37;;;;;;;0.58;76.03;99058.69;4200955;34;33782;-88
2021/12/26 02:56:53;;;;;;;3.85;2.50;;;;;;;0.59;75.42;99064.66;4195732;34;33581;-91
2021/12/26 02:59:22;;;;;;;2.97;2.47;;;;;;;0.73;75.26;99052.12;4196187;34;33978;-89
2021/12/26 03:01:51;;;;;;;4.18;2.58;;;;;;;0.67;74.64;99052.84;4202443;34;34014;-90
2021/12/26 03:04:20;;;;;;;3.90;2.47;;;;;;;0.44;75.34;99059.28;4201023;34;33481;-88
2021/12/26 03:06:59;;;;;;;2.30;2.10;;;;;;;0.51;74.38;99061.09;4202777;34;34894;-89
2021/12/26 03:09:33;;;;;;;3.53;2.95;;;;;;;0.69;73.27;99063.97;4200133;34;33847;-87
2021/12/26 03:12:02;;;;;;;2.42;2.22;;;;;;;0.26;74.47;99058.13;4200062;34;32931;-90
2021/12/26 03:14:31;;;;;;;2.95;2.45;;;;;;;0.31;74.04;99059.06;4205543;34;33607;-88
2021/12/26 03:17:02;;;;;;;3.05;2.03;;;;;;;0.82;72.03;99062.44;4200274;34;33605;-89
2021/12/26 03:19:32;;;;;;;2.47;2.00;;;;;;;0.88;71.23;99051.50;4200491;34;34433;-87
2021/12/26 03:22:00;;;;;;;2.28;2.08;;;;;;;0.80;71.61;99057.34;4200448;34;33344;-88
2021/12/26 03:24:31;;;;;;;1.95;1.85;;;;;;;1.29;69.76;99046.97;4209394;34;33474;-88
2021/12/26 03:27:02;;;;;;;2.97;2.10;;;;;;;0.59;71.88;99065.50;4218914;34;34806;-90
2021/12/26 03:29:34;;;;;;;2.17;1.98;;;;;;;1.43;69.17;99062.50;4220445;34;33659;-89
2021/12/26 03:32:05;;;;;;;3.70;2.10;;;;;;;1.44;69.31;99059.09;4208620;34;33891;-89
2021/12/26 03:34:34;;;;;;;2.17;1.92;;;;;;;1.74;68.67;99060.31;4202234;34;35565;-88
2021/12/26 03:37:03;;;;;;;3.90;2.35;;;;;;;1.75;68.64;99052.69;4201624;34;34870;-87
2021/12/26 03:39:33;;;;;;;2.65;2.42;;;;;;;1.85;69.11;99051.09;4202270;34;34514;-88
2021/12/26 03:42:02;;;;;;;2.23;1.93;;;;;;;2.12;67.95;99053.94;4194053;34;32030;-87
2021/12/26 03:44:32;;;;;;;2.25;2.05;;;;;;;2.08;67.50;99056.47;4189139;34;32862;-88
2021/12/26 03:47:00;;;;;;;3.08;1.90;;;;;;;1.79;67.99;99059.56;4201917;34;33899;-87
2021/12/26 03:49:30;;;;;;;2.22;2.03;;;;;;;1.33;70.28;99050.41;4202320;34;33491;-89
2021/12/26 03:51:59;;;;;;;2.47;2.10;;;;;;;1.66;68.81;99045.75;4202283;34;33372;-89
2021/12/26 03:54:27;;;;;;;2.37;2.10;;;;;;;1.66;69.53;99044.88;4206851;34;33577;-88
2021/12/26 03:56:58;;;;;;;2.55;2.35;;;;;;;1.57;69.04;99045.66;4201762;34;34793;-88
2021/12/26 03:59:28;;;;;;;2.55;2.08;;;;;;;1.61;68.94;99052.50;4202202;34;34148;-88
2021/12/26 04:01:57;;;;;;;2.42;1.90;;;;;;;2.16;67.41;99054.00;4189279;34;32261;-88
2021/12/26 04:04:27;;;;;;;2.58;1.90;;;;;;;2.06;67.91;99055.59;4201775;34;34456;-91
2021/12/26 04:06:58;;;;;;;2.58;1.98;;;;;;;1.81;67.83;99052.75;4202790;34;34525;-87
2021/12/26 04:09:26;;;;;;;;;;;;;;;1.97;67.31;99045.25;4206522;34;33726;-87
2021/12/26 04:11:55;;;;;;;1.95;1.85;;;;;;;2.13;66.72;99045.44;4201589;34;33553;-87
2021/12/26 04:14:26;;;;;;;2.30;2.10;;;;;;;1.65;67.05;99044.03;4201409;34;33351;-89
2021/12/26 04:16:55;;;;;;;1.90;1.80;;;;;;;1.05;68.40;99042.38;4201734;34;34693;-88
2021/12/26 04:19:24;;;;;;;1.70;1.60;;;;;;;1.54;67.32;99042.19;4201880;34;33610;-90
2021/12/26 04:21:53;;;;;;;2.12;1.92;;;;;;;1.54;66.33;99043.03;4206286;34;33365;-88
2021/12/26 04:24:22;;;;;;;2.75;2.55;;;;;;;1.06;68.08;99051.75;4209333;34;33912;-88
2021/12/26 04:26:51;;;;;;;1.80;1.70;;;;;;;1.61;66.49;99049.94;4214825;34;33970;-88
2021/12/26 04:29:20;;;;;;;3.15;2.25;;;;;;;2.09;64.99;99055.63;4214612;33;33660;-89
2021/12/26 04:31:50;;;;;;;2.00;1.90;;;;;;;2.26;64.33;99054.09;4211294;34;32974;-88
2021/12/26 04:34:19;;;;;;;1.90;1.80;;;;;;;2.64;63.09;99051.03;4216786;34;34193;-88
2021/12/26 04:36:49;;;;;;;2.05;1.80;;;;;;;2.52;63.17;99056.87;4215840;34;34117;-88
2021/12/26 04:39:18;;;;;;;1.70;1.60;;;;;;;2.43;63.00;99067.03;4215684;34;34383;-87
2021/12/26 04:41:46;;;;;;;1.67;1.58;;;;;;;2.66;62.11;99074.94;4208733;34;33196;-89
2021/12/26 04:44:18;;;;;;;2.42;1.98;;;;;;;2.22;63.04;99071.94;4201832;34;33971;-88
2021/12/26 04:46:50;;;;;;;2.97;1.65;;;;;;;2.61;62.33;99081.72;4202997;34;34726;-87
2021/12/26 04:49:21;;;;;;;1.98;1.77;;;;;;;2.90;61.11;99076.84;4206537;34;34559;-87
2021/12/26 04:51:50;;;;;;;2.28;2.10;;;;;;;2.64;60.32;99083.47;4201718;34;33099;-90
2021/12/26 04:54:20;;;;;;;1.77;1.67;;;;;;;2.22;62.32;99089.84;4201708;34;34448;-90
2021/12/26 04:56:49;;;;;;;1.73;1.62;;;;;;;2.50;61.11;99096.13;4201797;34;34060;-88
2021/12/26 04:59:19;;;;;;;1.83;1.73;;;;;;;2.10;62.66;99090.56;4201719;34;33845;-89
2021/12/26 05:01:48;;;;;;;3.05;2.00;;;;;;;2.55;61.82;99099.59;4206094;34;32777;-90
2021/12/26 05:04:17;;;;;;;4.10;2.28;;;;;;;2.31;62.40;99095.94;4201664;34;33367;-88
2021/12/26 05:06:49;;;;;;;1.90;1.80;;;;;;;2.84;60.80;99094.72;4201259;34;33792;-87
2021/12/26 05:09:18;;;;;;;2.20;1.73;;;;;;;3.18;59.60;99094.97;4201376;34;33668;-89
2021/12/26 05:11:49;;;;;;;2.10;1.60;;;;;;;2.93;59.65;99091.38;4201803;34;33758;-89
2021/12/26 05:14:18;;;;;;;3.92;1.90;;;;;;;3.09;59.64;99100.03;4205912;34;33469;-90
2021/12/26 05:16:47;;;;;;;1.80;1.70;;;;;;;3.02;59.94;99094.03;4201406;34;33908;-89
2021/12/26 05:19:16;;;;;;;2.10;1.90;;;;;;;3.14;60.17;99104.38;4202011;34;33901;-90
2021/12/26 05:21:46;;;;;;;2.05;1.80;;;;;;;3.17;59.37;99113.78;4201636;34;33933;-89
2021/12/26 05:24:15;;;;;;;1.70;1.60;;;;;;;3.29;58.70;99116.44;4208019;34;33548;-88
2021/12/26 05:26:45;;;;;;;1.70;1.60;;;;;;;2.98;59.78;99125.59;4215023;34;32759;-90
2021/12/26 05:29:14;;;;;;;1.65;1.55;;;;;;;3.07;59.61;99117.97;4220391;34;33888;-88
2021/12/26 05:31:43;;;;;;;2.00;1.80;;;;;;;3.06;59.50;99113.69;4214929;34;32881;-89
2021/12/26 05:34:13;;;;;;;3.30;2.22;;;;;;;3.28;58.85;99124.09;4202792;34;33718;-90
2021/12/26 05:36:42;;;;;;;1.70;1.60;;;;;;;3.19;59.12;99123.19;4201219;34;34609;-90
2021/12/26 05:39:13;;;;;;;1.80;1.70;;;;;;;3.26;59.74;99131.75;4201326;34;33625;-88
2021/12/26 05:41:42;;;;;;;2.20;2.00;;;;;;;3.47;58.62;99136.19;4206164;34;33405;-91
2021/12/26 05:44:13;;;;;;;1.62;1.52;;;;;;;3.37;59.66;99131.84;4201845;34;34014;-88
2021/12/26 05:46:43;;;;;;;2.75;1.70;;;;;;;3.35;60.10;99130.97;4201662;34;34794;-91
2021/12/26 05:49:13;;;;;;;1.60;1.50;;;;;;;3.26;60.04;99134.31;4201616;34;33513;-90
2021/12/26 05:51:43;;;;;;;2.10;1.90;;;;;;;3.40;59.72;99137.84;4201183;34;32912;-88
2021/12/26 05:54:16;;;;;;;1.65;1.55;;;;;;;3.18;60.25;99136.00;4193566;34;35232;-89
2021/12/26 05:56:45;;;;;;;2.12;1.52;;;;;;;3.33;59.64;99141.22;4206030;34;34014;-88
2021/12/26 05:59:14;;;;;;;1.55;1.45;;;;;;;3.34;59.09;99148.06;4200755;34;33813;-88
2021/12/26 06:01:43;;;;;;;1.60;1.50;;;;;;;3.15;58.82;99143.66;4201338;34;34054;-91
2021/12/26 06:04:12;;;;;;;2.08;1.90;;;;;;;3.15;58.59;99149.63;4201168;34;33825;-87
2021/12/26 06:06:43;;;;;;;1.80;1.70;;;;;;;3.27;58.18;99150.59;4188535;34;34623;-91
2021/12/26 06:09:13;;;;;;;1.98;1.87;;;;;;;3.32;57.84;99161.72;4205819;34;34715;-89
2021/12/26 06:11:44;;;;;;;1.60;1.50;;;;;;;3.19;58.45;99165.91;4201590;34;33337;-87
2021/12/26 06:14:14;;;;;;;2.33;1.55;;;;;;;3.50;55.46;99163.56;4201966;34;33921;-88
2021/12/26 06:16:43;;;;;;;1.70;1.60;;;;;;;3.27;56.00;99159.12;4200501;34;34018;-87
2021/12/26 06:19:13;;;;;;;1.70;1.60;;;;;;;3.13;56.22;99165.84;4200559;34;33916;-90
2021/12/26 06:21:44;;;;;;;1.77;1.67;;;;;;;3.19;55.80;99169.34;4206311;34;33515;-88
2021/12/26 06:24:16;;;;;;;1.73;1.62;;;;;;;3.50;53.38;99163.56;4204072;34;34205;-90
2021/12/26 06:26:48;;;;;;;1.90;1.80;;;;;;;3.51;52.12;99167.84;4201074;34;33410;-88
2021/12/26 06:29:25;;;;;;;1.80;1.60;;;;;;;3.46;51.86;99172.94;4200880;34;33416;-88
2021/12/26 06:32:00;;;;;;;1.77;1.50;;;;;;;3.38;51.56;99169.44;4201558;34;33416;-89
2021/12/26 06:34:33;;;;;;;1.52;1.42;;;;;;;3.39;51.63;99176.31;4201188;34;33822;-88
2021/12/26 06:37:07;;;;;;;1.80;1.70;;;;;;;3.35;51.84;99177.97;4206191;34;33183;-91
2021/12/26 06:39:49;;;;;;;1.65;1.55;;;;;;;3.13;52.78;99178.66;4206139;34;33671;-88
2021/12/26 06:42:33;;;;;;;;;;;;;;;3.23;52.51;99180.44;4201056;34;32271;-89
2021/12/26 06:45:06;;;;;;;1.77;1.67;;;;;;;3.39;52.17;99187.44;4201014;34;33914;-91
2021/12/26 06:47:36;;;;;;;1.70;1.60;;;;;;;3.43;53.56;99185.72;4195819;34;34074;-88
2021/12/26 06:50:06;;;;;;;1.73;1.62;;;;;;;3.34;54.40;99194.22;4200782;34;33782;-88
2021/12/26 06:52:36;;;;;;;1.92;1.60;;;;;;;3.33;54.01;99201.91;4200292;34;34064;-90
2021/12/26 06:55:05;;;;;;;1.90;1.70;;;;;;;3.30;54.92;99202.72;4205959;34;34314;-88
2021/12/26 06:57:35;;;;;;;1.80;1.70;;;;;;;3.42;55.01;99201.97;4200946;34;34844;-88
2021/12/26 07:00:10;;;;;;;1.98;1.80;;;;;;;3.22;55.65;99201.81;4200397;34;33179;-88
2021/12/26 07:02:38;;;;;;;1.80;1.70;;;;;;;3.28;56.22;99203.56;4200519;34;34228;-88
2021/12/26 07:05:08;;;;;;;2.00;1.90;;;;;;;3.27;56.68;99205.28;4199873;34;34573;-90
2021/12/26 07:07:38;;;;;;;2.25;1.60;;;;;;;3.38;56.03;99200.22;4205705;34;33523;-91
2021/12/26 07:10:09;;;;;;;1.70;1.58;;;;;;;3.50;55.62;99207.16;4200586;34;33944;-88
2021/12/26 07:12:40;;;;;;;2.53;2.10;;;;;;;3.42;56.05;99207.09;4200733;34;33123;-89
2021/12/26 07:15:10;;;;;;;2.12;1.90;;;;;;;3.53;55.05;99199.50;4200787;34;33672;-88
2021/12/26 07:17:42;;;;;;;1.83;1.73;;;;;;;3.25;54.59;99206.13;4200511;34;34015;-88
2021/12/26 07:20:14;;;;;;;1.60;1.50;;;;;;;3.53;51.70;99202.06;4201305;34;33889;-89
2021/12/26 07:22:47;;;;;;;2.33;1.95;;;;;;;3.52;51.77;99205.47;4205171;34;32293;-90
2021/12/26 07:25:16;;;;;;;1.60;1.50;;;;;;;3.09;51.84;99215.34;4212785;34;33555;-88
2021/12/26 07:27:46;;;;;;;1.73;1.58;;;;;;;2.92;51.84;99215.19;4199819;34;33981;-88
2021/12/26 07:30:19;;;;;;;1.50;1.40;;;;;;;2.98;50.79;99217.84;4200449;34;32767;-90
2021/12/26 07:32:48;;;;;;;1.70;1.60;;;;;;;2.87;50.72;99214.28;4200531;34;33835;-90
2021/12/26 07:35:17;;;;;;;1.67;1.58;;;;;;;2.71;50.87;99211.59;4205052;34;33218;-89
2021/12/26 07:37:46;;;;;;;1.70;1.60;;;;;;;2.98;50.50;99211.00;4199935;34;34042;-88
2021/12/26 07:40:15;;;;;;;1.58;1.48;;;;;;;3.07;50.79;99219.59;4200178;34;34508;-88
2021/12/26 07:42:46;;;;;;;1.70;1.60;;;;;;;3.27;50.39;99220.66;4187651;34;33155;-91
2021/12/26 07:45:22;;;;;;;1.45;1.35;;;;;;;2.83;50.61;99217.66;4199892;34;33757;-88
2021/12/26 07:47:51;;;;;;;1.90;1.77;;;;;;;3.17;50.72;99212.03;4199960;34;33728;-88
2021/12/26 07:50:21;;;;;;;1.50;1.40;;;;;;;3.18;48.03;99221.41;4204634;34;33716;-90
2021/12/26 07:53:10;;;;;;;3.37;1.50;;;;;;;3.39;47.17;99222.47;4200281;34;32402;-88
2021/12/26 07:55:54;;;;;;;1.77;1.50;;;;;;;3.32;47.24;99230.94;4200335;34;34578;-88
2021/12/26 07:58:39;;;;;;;1.65;1.50;;;;;;;3.59;46.88;99232.88;4199169;34;33909;-88
2021/12/26 08:01:23;;;;;;;2.10;1.80;;;;;;;3.38;46.47;99237.00;4200725;34;34423;-88
2021/12/26 08:03:52;;;;;;;1.60;1.50;;;;;;;3.38;47.88;99242.12;4204262;34;32919;-89
2021/12/26 08:06:24;;;;;;;1.70;1.60;;;;;;;4.03;44.46;99240.00;4214203;34;32254;-88
2021/12/26 08:08:53;;;;;;;2.20;1.80;;;;;;;3.85;44.43;99233.91;4218422;34;34707;-88
2021/12/26 08:11:22;;;;;;;1.50;1.40;;;;;;;3.56;45.56;99233.72;4213699;34;33914;-90
2021/12/26 08:13:54;;;;;;;1.65;1.55;;;;;;;3.35;47.62;99236.94;4199089;34;33830;-88
2021/12/26 08:16:23;;;;;;;2.50;1.80;;;;;;;3.94;42.82;99232.25;4199832;34;33115;-88
2021/12/26 08:18:52;;;;;;;1.70;1.60;;;;;;;3.68;44.04;99225.25;4201357;34;33636;-88
2021/12/26 08:21:20;;;;;;;2.55;2.08;;;;;;;3.69;44.97;99226.94;4206200;34;33583;-88
2021/12/26 08:23:49;;;;;;;1.70;1.60;;;;;;;3.54;47.98;99226.84;4199696;34;32968;-90
2021/12/26 08:26:18;;;;;;;1.70;1.60;;;;;;;3.81;45.05;99228.75;4201370;34;33845;-90
2021/12/26 08:28:47;;;;;;;4.30;1.60;;;;;;;3.84;44.43;99228.75;4201083;34;34066;-91
2021/12/26 08:31:19;;;;;;;2.50;1.75;;;;;;;3.79;44.74;99235.56;4201411;34;33920;-90
2021/12/26 08:33:49;;;;;;;2.40;1.70;;;;;;;3.82;47.87;99239.03;4201146;34;32976;-88
2021/12/26 08:36:19;;;;;;;1.70;1.60;;;;;;;3.67;47.89;99246.59;4206105;34;33724;-88
2021/12/26 08:38:49;;;;;;;2.33;1.70;;;;;;;3.91;47.85;99235.66;4201516;34;33267;-89
2021/12/26 08:41:18;;;;;;;1.98;1.50;;;;;;;3.94;47.37;99250.22;4201469;34;34768;-87
2021/12/26 08:43:48;;;;;;;2.80;1.85;;;;;;;3.97;47.63;99245.97;4201485;34;33197;-88
2021/12/26 08:46:18;;;;;;;1.60;1.50;;;;;;;4.12;45.18;99254.63;4201779;34;33599;-89
2021/12/26 08:48:47;;;;;;;2.10;1.60;;;;;;;3.61;46.65;99254.28;4205265;34;33611;-87
2021/12/26 08:51:16;;;;;;;1.70;1.58;;;;;;;3.36;45.01;99251.50;4200915;34;33897;-87
2021/12/26 08:53:45;;;;;;;1.67;1.58;;;;;;;3.94;43.66;99250.22;4201255;34;33416;-89
2021/12/26 08:56:14;;;;;;;2.70;1.50;;;;;;;4.05;43.26;99246.87;4200939;34;33950;-87
2021/12/26 08:58:42;;;;;;;1.95;1.60;;;;;;;4.21;41.67;99241.84;4199369;34;34731;-88
2021/12/26 09:01:11;;;;;;;2.17;1.60;;;;;;;3.53;43.42;99245.66;4202433;34;33895;-88
2021/12/26 09:03:42;;;;;;;1.70;1.60;;;;;;;3.35;44.75;99244.63;4199371;34;33431;-88
2021/12/26 09:06:10;;;;;;;1.87;1.48;;;;;;;3.45;45.69;99245.56;4200436;34;32548;-90
2021/12/26 09:08:39;;;;;;;1.60;1.50;;;;;;;3.66;41.18;99242.34;4200457;34;34160;-89
2021/12/26 09:11:08;;;;;;;2.95;1.52;;;;;;;4.03;40.26;99234.88;4201028;34;33661;-88
2021/12/26 09:13:40;;;;;;;3.12;1.50;;;;;;;3.63;43.54;99227.78;4203448;34;33280;-88
2021/12/26 09:16:09;;;;;;;1.85;1.58;;;;;;;3.48;42.22;99221.66;4214110;34;33788;-87
2021/12/26 09:18:39;;;;;;;1.50;1.40;;;;;;;3.69;43.66;99226.09;4200058;34;33971;-89
2021/12/26 09:21:09;;;;;;;2.33;2.12;;;;;;;3.58;42.95;99228.59;4203832;34;34428;-89
2021/12/26 09:23:38;;;;;;;1.60;1.50;;;;;;;4.04;43.65;99226.34;4204660;34;32748;-89
2021/12/26 09:26:06;;;;;;;1.50;1.40;;;;;;;3.74;43.67;99219.28;4214873;34;33753;-89
2021/12/26 09:28:38;;;;;;;1.65;1.55;;;;;;;4.10;44.12;99222.94;4220474;34;33806;-87
2021/12/26 09:31:07;;;;;;;2.87;1.60;;;;;;;3.72;43.97;99220.97;4213298;34;34174;-89
2021/12/26 09:33:36;;;;;;;2.95;1.90;;;;;;;4.10;43.33;99225.50;4203548;34;34366;-89
2021/12/26 09:36:05;;;;;;;1.83;1.58;;;;;;;4.36;42.28;99217.94;4199925;34;33855;-88
2021/12/26 09:38:35;;;;;;;3.28;1.80;;;;;;;4.49;39.76;99222.25;4201607;34;33982;-88
2021/12/26 09:41:04;;;;;;;1.90;1.73;;;;;;;4.49;40.22;99212.84;4206131;34;32995;-89
2021/12/26 09:43:33;;;;;;;1.85;1.67;;;;;;;4.43;42.23;99212.81;4211462;34;32997;-88
2021/12/26 09:46:02;;;;;;;2.20;2.00;;;;;;;4.64;42.93;99212.03;4200456;34;34639;-87
2021/12/26 09:48:33;;;;;;;2.20;1.90;;;;;;;4.34;40.52;99217.06;4193858;34;34135;-89
2021/12/26 09:51:02;;;;;;;2.97;1.98;;;;;;;4.38;40.16;99217.09;4200447;34;33479;-87
2021/12/26 09:53:38;;;;;;;1.60;1.50;;;;;;;4.42;41.61;99218.81;4201357;34;32429;-87
2021/12/26 09:56:08;;;;;;;2.20;1.77;;;;;;;4.48;40.09;99208.56;4204087;34;33602;-89
2021/12/26 09:58:51;;;;;;;2.03;1.73;;;;;;;4.41;42.16;99204.25;4199261;34;33879;-88
2021/12/26 10:01:31;;;;;;;2.97;1.70;;;;;;;4.41;39.51;99204.25;4200046;34;34246;-89
2021/12/26 10:04:01;;;;;;;1.73;1.62;;;;;;;4.69;37.63;99199.22;4196468;34;34060;-87
2021/12/26 10:06:34;;;;;;;2.03;1.83;;;;;;;4.23;38.86;99199.91;4197996;34;33452;-86
2021/12/26 10:09:07;;;;;;;1.60;1.50;;;;;;;4.18;41.86;99196.47;4196292;34;34052;-88
2021/12/26 10:11:38;;;;;;;2.87;2.10;;;;;;;4.09;43.06;99209.25;4203600;34;34465;-87
2021/12/26 10:14:08;;;;;;;2.05;1.85;;;;;;;3.69;43.83;99198.75;4199764;34;32296;-86
2021/12/26 10:16:38;;;;;;;3.35;1.75;;;;;;;3.87;42.82;99203.16;4197286;34;32858;-88
2021/12/26 10:19:09;;;;;;;1.70;1.60;;;;;;;3.52;43.04;99197.78;4197821;34;34070;-86
2021/12/26 10:21:41;;;;;;;1.70;1.60;;;;;;;3.77;43.14;99199.66;4191542;34;33988;-88
2021/12/26 10:24:18;;;;;;;2.58;1.85;;;;;;;3.85;42.67;99200.56;4203289;34;34329;-88
2021/12/26 10:26:50;;;;;;;2.10;1.70;;;;;;;3.92;42.92;99190.34;4201816;34;33928;-88
2021/12/26 10:29:25;;;;;;;2.17;1.98;;;;;;;4.13;42.28;99198.16;4207700;34;32488;-87
2021/12/26 10:32:06;;;;;;;4.28;2.20;;;;;;;4.38;42.65;99182.84;4197844;34;33979;-87
2021/12/26 10:34:39;;;;;;;1.87;1.60;;;;;;;4.01;41.71;99183.56;4207889;34;32879;-86
2021/12/26 10:37:10;;;;;;;1.90;1.73;;;;;;;4.52;38.73;99177.72;4196629;34;33870;-86
2021/12/26 10:39:43;;;;;;;3.62;2.00;;;;;;;4.78;38.52;99182.94;4202749;34;34883;-88
2021/12/26 10:42:16;;;;;;;2.47;1.90;;;;;;;4.39;40.73;99181.97;4200030;34;34646;-87
2021/12/26 10:44:47;;;;;;;2.28;2.05;;;;;;;4.52;39.15;99178.63;4195006;34;33433;-87
2021/12/26 10:47:18;;;;;;;2.05;1.85;;;;;;;4.40;40.94;99181.16;4195514;34;36014;-87
2021/12/26 10:49:51;;;;;;;1.65;1.55;;;;;;;4.27;40.90;99175.09;4198209;34;33388;-88
2021/12/26 10:52:23;;;;;;;2.42;1.48;;;;;;;4.57;38.14;99178.63;4197127;34;33752;-86
2021/12/26 10:54:56;;;;;;;1.92;1.70;;;;;;;4.46;38.97;99182.00;4202225;34;33299;-86
2021/12/26 10:57:28;;;;;;;3.42;1.70;;;;;;;4.66;38.99;99189.78;4191335;34;193508;-86
2021/12/26 11:00:17;;;;;;;1.98;1.75;;;;;;;4.83;39.12;99182.12;4196943;34;34047;-88
2021/12/26 11:02:47;;;;;;;1.90;1.60;;;;;;;4.60;39.10;99174.34;4197190;34;33989;-88
2021/12/26 11:05:18;;;;;;;1.85;1.67;;;;;;;4.62;40.93;99180.34;4196550;34;33673;-87
2021/12/26 11:07:51;;;;;;;1.80;1.70;;;;;;;4.87;37.17;99180.41;4196572;34;34000;-86
2021/12/26 11:10:34;;;;;;;2.80;1.80;;;;;;;4.77;38.01;99183.81;4200852;34;33869;-87
2021/12/26 11:13:06;;;;;;;1.85;1.70;;;;;;;4.82;37.62;99182.94;4201524;34;32695;-89
2021/12/26 11:15:38;;;;;;;1.92;1.50;;;;;;;4.75;39.11;99178.66;4196524;34;33851;-89
2021/12/26 11:18:11;;;;;;;3.97;1.67;;;;;;;4.66;39.33;99170.94;4197637;34;34685;-86
2021/12/26 11:20:42;;;;;;;2.40;2.03;;;;;;;4.68;40.35;99172.63;4196660;34;34715;-86
2021/12/26 11:23:12;;;;;;;2.15;1.60;;;;;;;4.65;40.28;99172.63;4199527;34;33724;-88
2021/12/26 11:25:47;;;;;;;1.70;1.60;;;;;;;4.83;40.07;99176.97;4203027;34;33193;-87
2021/12/26 11:28:18;;;;;;;2.58;2.10;;;;;;;4.78;41.52;99182.94;4202247;34;33154;-88
2021/12/26 11:30:47;;;;;;;2.65;1.73;;;;;;;4.76;42.39;99177.81;4198750;34;33872;-89
2021/12/26 11:33:16;;;;;;;2.35;2.10;;;;;;;4.97;41.39;99170.97;4196973;34;33412;-86
2021/12/26 11:35:44;;;;;;;1.70;1.60;;;;;;;4.69;37.00;99163.25;4198001;34;32980;-86
2021/12/26 11:38:17;;;;;;;1.90;1.52;;;;;;;4.94;36.60;99164.13;4198055;34;34166;-88
2021/12/26 11:41:03;;;;;;;2.72;2.12;;;;;;;5.40;32.22;99171.84;4202821;34;32183;-88
2021/12/26 11:44:03;;;;;;;2.08;1.75;;;;;;;4.78;33.68;99172.66;4202956;34;33788;-89
2021/12/26 11:47:00;;;;;;;3.78;1.80;;;;;;;4.95;32.73;99173.53;4201115;34;33214;-87
2021/12/26 11:50:05;;;;;;;1.60;1.50;;;;;;;4.83;33.29;99186.37;4202412;33;34656;-87
2021/12/26 11:52:48;;;;;;;3.08;1.87;;;;;;;4.63;32.58;99187.19;4200096;34;32559;-87
2021/12/26 11:55:25;;;;;;;2.42;2.00;;;;;;;4.39;33.15;99197.38;4199726;34;34590;-90
2021/12/26 11:58:21;;;;;;;1.70;1.60;;;;;;;4.15;33.77;99188.72;4199634;34;32313;-86
2021/12/26 12:00:51;;;;;;;1.85;1.70;;;;;;;5.00;30.95;99188.97;4200041;34;33305;-86
2021/12/26 12:03:21;;;;;;;;;;;;;;;4.49;32.07;99187.19;4200065;34;34842;-88
2021/12/26 12:05:50;;;;;;;1.80;1.70;;;;;;;4.75;31.79;99186.37;4199608;34;33938;-87